sensor_id;sensor_type;location;lat;lon;timestamp;P1;durP1;ratioP1;P2;durP2;ratioP2
60014;SDS011;45867;52.480;6.056;2022-09-12T00:02:08;18.87;;;13.40;;
60014;SDS011;45867;52.480;6.056;2022-09-12T00:04:34;17.52;;;12.48;;
60014;SDS011;45867;52.480;6.056;2022-09-12T00:06:59;21.90;;;12.82;;
60014;SDS011;45867;52.480;6.056;2022-09-12T00:09:25;17.35;;;11.85;;
60014;SDS011;45867;52.480;6.056;2022-09-12T00:11:50;22.77;;;12.82;;
60014;SDS011;45867;52.480;6.056;2022-09-12T00:14:16;17.83;;;12.60;;
60014;SDS011;45867;52.480;6.056;2022-09-12T00:16:42;18.85;;;11.35;;
60014;SDS011;45867;52.480;6.056;2022-09-12T00:19:07;23.02;;;12.82;;
60014;SDS011;45867;52.480;6.056;2022-09-12T00:21:34;23.83;;;11.52;;
60014;SDS011;45867;52.480;6.056;2022-09-12T00:23:59;15.40;;;10.63;;
60014;SDS011;45867;52.480;6.056;2022-09-12T00:26:25;19.00;;;10.60;;
60014;SDS011;45867;52.480;6.056;2022-09-12T00:28:50;15.85;;;10.95;;
60014;SDS011;45867;52.480;6.056;2022-09-12T00:31:17;17.27;;;11.02;;
60014;SDS011;45867;52.480;6.056;2022-09-12T00:33:42;21.33;;;11.40;;
60014;SDS011;45867;52.480;6.056;2022-09-12T00:36:09;18.35;;;11.95;;
60014;SDS011;45867;52.480;6.056;2022-09-12T00:38:35;22.50;;;11.82;;
60014;SDS011;45867;52.480;6.056;2022-09-12T00:41:05;22.52;;;11.68;;
60014;SDS011;45867;52.480;6.056;2022-09-12T00:43:35;18.27;;;12.68;;
60014;SDS011;45867;52.480;6.056;2022-09-12T00:46:05;19.17;;;11.35;;
60014;SDS011;45867;52.480;6.056;2022-09-12T00:48:32;21.05;;;11.35;;
60014;SDS011;45867;52.480;6.056;2022-09-12T00:50:59;19.52;;;12.82;;
60014;SDS011;45867;52.480;6.056;2022-09-12T00:53:24;25.20;;;13.55;;
60014;SDS011;45867;52.480;6.056;2022-09-12T00:55:50;18.83;;;12.93;;
60014;SDS011;45867;52.480;6.056;2022-09-12T00:58:21;21.50;;;12.88;;
60014;SDS011;45867;52.480;6.056;2022-09-12T01:00:47;18.45;;;12.30;;
60014;SDS011;45867;52.480;6.056;2022-09-12T01:03:13;18.92;;;12.55;;
60014;SDS011;45867;52.480;6.056;2022-09-12T01:05:41;19.45;;;11.93;;
60014;SDS011;45867;52.480;6.056;2022-09-12T01:08:08;17.08;;;12.35;;
60014;SDS011;45867;52.480;6.056;2022-09-12T01:10:34;20.40;;;11.20;;
60014;SDS011;45867;52.480;6.056;2022-09-12T01:13:00;17.83;;;11.85;;
60014;SDS011;45867;52.480;6.056;2022-09-12T01:15:25;19.63;;;12.18;;
60014;SDS011;45867;52.480;6.056;2022-09-12T01:17:57;24.33;;;14.43;;
60014;SDS011;45867;52.480;6.056;2022-09-12T01:28:16;28.10;;;17.10;;
60014;SDS011;45867;52.480;6.056;2022-09-12T01:31:00;34.35;;;20.27;;
60014;SDS011;45867;52.480;6.056;2022-09-12T01:36:11;36.47;;;19.98;;
60014;SDS011;45867;52.480;6.056;2022-09-12T01:38:48;38.25;;;20.88;;
60014;SDS011;45867;52.480;6.056;2022-09-12T01:43:48;33.97;;;22.13;;
60014;SDS011;45867;52.480;6.056;2022-09-12T01:46:16;36.65;;;20.85;;
60014;SDS011;45867;52.480;6.056;2022-09-12T01:48:43;36.78;;;21.52;;
60014;SDS011;45867;52.480;6.056;2022-09-12T01:51:12;35.95;;;21.38;;
60014;SDS011;45867;52.480;6.056;2022-09-12T01:53:43;33.58;;;21.38;;
60014;SDS011;45867;52.480;6.056;2022-09-12T01:56:44;37.45;;;20.65;;
60014;SDS011;45867;52.480;6.056;2022-09-12T01:59:07;31.60;;;20.13;;
60014;SDS011;45867;52.480;6.056;2022-09-12T02:01:34;36.75;;;20.23;;
60014;SDS011;45867;52.480;6.056;2022-09-12T02:04:07;33.92;;;20.17;;
60014;SDS011;45867;52.480;6.056;2022-09-12T02:09:11;30.90;;;19.85;;
60014;SDS011;45867;52.480;6.056;2022-09-12T02:11:40;30.20;;;19.65;;
60014;SDS011;45867;52.480;6.056;2022-09-12T02:14:08;33.17;;;19.52;;
60014;SDS011;45867;52.480;6.056;2022-09-12T02:16:38;36.05;;;19.92;;
60014;SDS011;45867;52.480;6.056;2022-09-12T02:19:07;37.35;;;21.60;;
60014;SDS011;45867;52.480;6.056;2022-09-12T02:21:33;31.80;;;19.02;;
60014;SDS011;45867;52.480;6.056;2022-09-12T02:24:00;34.28;;;19.90;;
60014;SDS011;45867;52.480;6.056;2022-09-12T02:26:33;40.30;;;21.30;;
60014;SDS011;45867;52.480;6.056;2022-09-12T02:29:00;33.70;;;20.58;;
60014;SDS011;45867;52.480;6.056;2022-09-12T02:34:01;36.78;;;19.60;;
60014;SDS011;45867;52.480;6.056;2022-09-12T02:36:32;36.67;;;21.00;;
60014;SDS011;45867;52.480;6.056;2022-09-12T02:38:59;36.00;;;19.25;;
60014;SDS011;45867;52.480;6.056;2022-09-12T02:41:24;32.85;;;20.80;;
60014;SDS011;45867;52.480;6.056;2022-09-12T02:43:49;37.80;;;21.50;;
60014;SDS011;45867;52.480;6.056;2022-09-12T02:46:38;34.83;;;20.90;;
60014;SDS011;45867;52.480;6.056;2022-09-12T02:49:01;38.17;;;20.73;;
60014;SDS011;45867;52.480;6.056;2022-09-12T02:51:26;33.45;;;19.45;;
60014;SDS011;45867;52.480;6.056;2022-09-12T02:53:51;34.25;;;19.38;;
60014;SDS011;45867;52.480;6.056;2022-09-12T02:56:18;33.03;;;19.15;;
60014;SDS011;45867;52.480;6.056;2022-09-12T02:58:45;34.03;;;18.13;;
60014;SDS011;45867;52.480;6.056;2022-09-12T03:01:35;32.85;;;19.05;;
60014;SDS011;45867;52.480;6.056;2022-09-12T03:04:07;35.67;;;20.38;;
60014;SDS011;45867;52.480;6.056;2022-09-12T03:06:50;34.85;;;19.38;;
60014;SDS011;45867;52.480;6.056;2022-09-12T03:09:31;32.97;;;19.08;;
60014;SDS011;45867;52.480;6.056;2022-09-12T03:19:53;28.33;;;17.15;;
60014;SDS011;45867;52.480;6.056;2022-09-12T03:24:56;33.83;;;19.02;;
60014;SDS011;45867;52.480;6.056;2022-09-12T03:27:26;33.15;;;18.40;;
60014;SDS011;45867;52.480;6.056;2022-09-12T03:29:52;35.58;;;19.20;;
60014;SDS011;45867;52.480;6.056;2022-09-12T03:32:18;34.67;;;19.30;;
60014;SDS011;45867;52.480;6.056;2022-09-12T03:34:43;28.42;;;17.40;;
60014;SDS011;45867;52.480;6.056;2022-09-12T03:37:09;32.13;;;18.92;;
60014;SDS011;45867;52.480;6.056;2022-09-12T03:39:34;29.40;;;17.50;;
60014;SDS011;45867;52.480;6.056;2022-09-12T03:41:59;31.42;;;18.45;;
60014;SDS011;45867;52.480;6.056;2022-09-12T03:44:25;32.55;;;18.20;;
60014;SDS011;45867;52.480;6.056;2022-09-12T03:46:50;38.17;;;18.67;;
60014;SDS011;45867;52.480;6.056;2022-09-12T03:49:15;34.28;;;18.67;;
60014;SDS011;45867;52.480;6.056;2022-09-12T03:51:41;36.95;;;19.30;;
60014;SDS011;45867;52.480;6.056;2022-09-12T03:54:07;33.28;;;18.98;;
60014;SDS011;45867;52.480;6.056;2022-09-12T03:56:32;37.47;;;19.27;;
60014;SDS011;45867;52.480;6.056;2022-09-12T03:58:58;37.30;;;19.27;;
60014;SDS011;45867;52.480;6.056;2022-09-12T04:01:23;37.10;;;20.52;;
60014;SDS011;45867;52.480;6.056;2022-09-12T04:03:49;42.22;;;20.63;;
60014;SDS011;45867;52.480;6.056;2022-09-12T04:06:16;39.83;;;19.67;;
60014;SDS011;45867;52.480;6.056;2022-09-12T04:08:42;37.45;;;19.02;;
60014;SDS011;45867;52.480;6.056;2022-09-12T04:11:09;37.25;;;19.35;;
60014;SDS011;45867;52.480;6.056;2022-09-12T04:13:35;35.03;;;19.27;;
60014;SDS011;45867;52.480;6.056;2022-09-12T04:16:00;41.03;;;20.60;;
60014;SDS011;45867;52.480;6.056;2022-09-12T04:18:26;35.65;;;19.02;;
60014;SDS011;45867;52.480;6.056;2022-09-12T04:20:52;34.58;;;19.35;;
60014;SDS011;45867;52.480;6.056;2022-09-12T04:23:17;34.47;;;18.45;;
60014;SDS011;45867;52.480;6.056;2022-09-12T04:25:42;32.97;;;18.23;;
60014;SDS011;45867;52.480;6.056;2022-09-12T04:28:08;24.38;;;14.98;;
60014;SDS011;45867;52.480;6.056;2022-09-12T04:30:33;27.97;;;15.70;;
60014;SDS011;45867;52.480;6.056;2022-09-12T04:32:58;26.35;;;15.07;;
60014;SDS011;45867;52.480;6.056;2022-09-12T04:35:24;28.30;;;15.75;;
60014;SDS011;45867;52.480;6.056;2022-09-12T04:37:49;29.38;;;15.75;;
60014;SDS011;45867;52.480;6.056;2022-09-12T04:40:15;32.55;;;17.23;;
60014;SDS011;45867;52.480;6.056;2022-09-12T04:42:40;33.45;;;17.83;;
60014;SDS011;45867;52.480;6.056;2022-09-12T04:45:05;34.78;;;19.27;;
60014;SDS011;45867;52.480;6.056;2022-09-12T04:47:31;34.60;;;19.80;;
60014;SDS011;45867;52.480;6.056;2022-09-12T04:49:56;41.53;;;20.00;;
60014;SDS011;45867;52.480;6.056;2022-09-12T04:52:25;43.17;;;20.77;;
60014;SDS011;45867;52.480;6.056;2022-09-12T04:54:50;41.50;;;20.50;;
60014;SDS011;45867;52.480;6.056;2022-09-12T04:57:17;40.88;;;21.35;;
60014;SDS011;45867;52.480;6.056;2022-09-12T04:59:42;48.70;;;22.42;;
60014;SDS011;45867;52.480;6.056;2022-09-12T05:02:08;41.22;;;21.75;;
60014;SDS011;45867;52.480;6.056;2022-09-12T05:04:33;44.47;;;22.67;;
60014;SDS011;45867;52.480;6.056;2022-09-12T05:06:58;36.70;;;20.75;;
60014;SDS011;45867;52.480;6.056;2022-09-12T05:12:10;44.47;;;20.85;;
60014;SDS011;45867;52.480;6.056;2022-09-12T05:14:48;54.25;;;20.02;;
60014;SDS011;45867;52.480;6.056;2022-09-12T05:17:14;49.05;;;18.80;;
60014;SDS011;45867;52.480;6.056;2022-09-12T05:19:39;42.97;;;17.92;;
60014;SDS011;45867;52.480;6.056;2022-09-12T05:22:04;46.13;;;18.23;;
60014;SDS011;45867;52.480;6.056;2022-09-12T05:24:30;33.22;;;16.25;;
60014;SDS011;45867;52.480;6.056;2022-09-12T05:26:56;43.75;;;16.63;;
60014;SDS011;45867;52.480;6.056;2022-09-12T05:32:34;28.40;;;16.83;;
60014;SDS011;45867;52.480;6.056;2022-09-12T05:34:59;33.53;;;16.60;;
60014;SDS011;45867;52.480;6.056;2022-09-12T05:37:41;33.20;;;17.77;;
60014;SDS011;45867;52.480;6.056;2022-09-12T05:40:06;31.65;;;17.95;;
60014;SDS011;45867;52.480;6.056;2022-09-12T05:42:35;35.38;;;19.52;;
60014;SDS011;45867;52.480;6.056;2022-09-12T05:45:02;31.58;;;17.67;;
60014;SDS011;45867;52.480;6.056;2022-09-12T05:47:28;37.38;;;18.30;;
60014;SDS011;45867;52.480;6.056;2022-09-12T05:49:53;37.25;;;17.50;;
60014;SDS011;45867;52.480;6.056;2022-09-12T05:52:19;37.10;;;19.63;;
60014;SDS011;45867;52.480;6.056;2022-09-12T05:54:44;38.25;;;19.17;;
60014;SDS011;45867;52.480;6.056;2022-09-12T05:57:11;49.85;;;19.63;;
60014;SDS011;45867;52.480;6.056;2022-09-12T05:59:36;50.67;;;19.48;;
60014;SDS011;45867;52.480;6.056;2022-09-12T06:02:02;42.55;;;20.60;;
60014;SDS011;45867;52.480;6.056;2022-09-12T06:04:27;41.95;;;21.65;;
60014;SDS011;45867;52.480;6.056;2022-09-12T06:06:52;43.35;;;21.27;;
60014;SDS011;45867;52.480;6.056;2022-09-12T06:09:18;49.00;;;22.08;;
60014;SDS011;45867;52.480;6.056;2022-09-12T06:11:43;49.20;;;21.23;;
60014;SDS011;45867;52.480;6.056;2022-09-12T06:14:10;42.10;;;21.42;;
60014;SDS011;45867;52.480;6.056;2022-09-12T06:16:35;49.45;;;21.15;;
60014;SDS011;45867;52.480;6.056;2022-09-12T06:19:02;45.58;;;21.63;;
60014;SDS011;45867;52.480;6.056;2022-09-12T06:21:28;47.53;;;23.02;;
60014;SDS011;45867;52.480;6.056;2022-09-12T06:23:55;53.72;;;22.80;;
60014;SDS011;45867;52.480;6.056;2022-09-12T06:26:22;45.67;;;23.17;;
60014;SDS011;45867;52.480;6.056;2022-09-12T06:28:49;48.30;;;22.42;;
60014;SDS011;45867;52.480;6.056;2022-09-12T06:31:16;47.97;;;23.65;;
60014;SDS011;45867;52.480;6.056;2022-09-12T06:33:43;50.30;;;22.38;;
60014;SDS011;45867;52.480;6.056;2022-09-12T06:36:09;58.67;;;23.67;;
60014;SDS011;45867;52.480;6.056;2022-09-12T06:38:35;53.67;;;23.55;;
60014;SDS011;45867;52.480;6.056;2022-09-12T06:41:06;48.58;;;22.95;;
60014;SDS011;45867;52.480;6.056;2022-09-12T06:43:32;43.85;;;23.02;;
60014;SDS011;45867;52.480;6.056;2022-09-12T06:45:57;54.40;;;25.13;;
60014;SDS011;45867;52.480;6.056;2022-09-12T06:48:23;49.40;;;23.63;;
60014;SDS011;45867;52.480;6.056;2022-09-12T06:50:58;48.08;;;24.20;;
60014;SDS011;45867;52.480;6.056;2022-09-12T06:53:24;43.70;;;22.48;;
60014;SDS011;45867;52.480;6.056;2022-09-12T06:58:21;49.00;;;21.88;;
60014;SDS011;45867;52.480;6.056;2022-09-12T07:00:46;49.20;;;23.38;;
60014;SDS011;45867;52.480;6.056;2022-09-12T07:03:11;49.45;;;22.73;;
60014;SDS011;45867;52.480;6.056;2022-09-12T07:05:37;45.83;;;22.58;;
60014;SDS011;45867;52.480;6.056;2022-09-12T07:08:02;47.67;;;23.02;;
60014;SDS011;45867;52.480;6.056;2022-09-12T07:10:27;57.22;;;24.13;;
60014;SDS011;45867;52.480;6.056;2022-09-12T07:12:53;45.92;;;22.90;;
60014;SDS011;45867;52.480;6.056;2022-09-12T07:15:18;49.78;;;23.00;;
60014;SDS011;45867;52.480;6.056;2022-09-12T07:17:43;48.53;;;23.08;;
60014;SDS011;45867;52.480;6.056;2022-09-12T07:20:08;49.53;;;23.30;;
60014;SDS011;45867;52.480;6.056;2022-09-12T07:22:34;45.70;;;23.98;;
60014;SDS011;45867;52.480;6.056;2022-09-12T07:24:59;48.83;;;23.75;;
60014;SDS011;45867;52.480;6.056;2022-09-12T07:27:24;49.78;;;23.17;;
60014;SDS011;45867;52.480;6.056;2022-09-12T07:29:50;50.67;;;22.92;;
60014;SDS011;45867;52.480;6.056;2022-09-12T07:32:15;54.83;;;23.25;;
60014;SDS011;45867;52.480;6.056;2022-09-12T07:34:40;50.08;;;24.70;;
60014;SDS011;45867;52.480;6.056;2022-09-12T07:37:06;58.75;;;23.70;;
60014;SDS011;45867;52.480;6.056;2022-09-12T07:39:31;51.10;;;25.33;;
60014;SDS011;45867;52.480;6.056;2022-09-12T07:41:56;54.55;;;24.77;;
60014;SDS011;45867;52.480;6.056;2022-09-12T07:44:22;52.00;;;23.02;;
60014;SDS011;45867;52.480;6.056;2022-09-12T07:46:49;62.03;;;24.02;;
60014;SDS011;45867;52.480;6.056;2022-09-12T07:49:14;46.80;;;24.10;;
60014;SDS011;45867;52.480;6.056;2022-09-12T07:51:40;57.55;;;23.77;;
60014;SDS011;45867;52.480;6.056;2022-09-12T07:54:06;51.70;;;22.13;;
60014;SDS011;45867;52.480;6.056;2022-09-12T07:56:32;42.88;;;23.23;;
60014;SDS011;45867;52.480;6.056;2022-09-12T07:58:57;47.85;;;22.75;;
60014;SDS011;45867;52.480;6.056;2022-09-12T08:01:24;44.75;;;21.65;;
60014;SDS011;45867;52.480;6.056;2022-09-12T08:03:52;43.58;;;20.27;;
60014;SDS011;45867;52.480;6.056;2022-09-12T08:06:18;42.10;;;20.80;;
60014;SDS011;45867;52.480;6.056;2022-09-12T08:08:44;39.90;;;21.45;;
60014;SDS011;45867;52.480;6.056;2022-09-12T08:11:11;38.95;;;21.60;;
60014;SDS011;45867;52.480;6.056;2022-09-12T08:13:37;34.95;;;21.63;;
60014;SDS011;45867;52.480;6.056;2022-09-12T08:16:03;46.10;;;23.33;;
60014;SDS011;45867;52.480;6.056;2022-09-12T08:18:30;42.60;;;22.23;;
60014;SDS011;45867;52.480;6.056;2022-09-12T08:21:00;37.00;;;21.10;;
60014;SDS011;45867;52.480;6.056;2022-09-12T08:23:26;37.17;;;22.13;;
60014;SDS011;45867;52.480;6.056;2022-09-12T08:25:59;38.92;;;21.95;;
60014;SDS011;45867;52.480;6.056;2022-09-12T08:28:25;47.17;;;21.65;;
60014;SDS011;45867;52.480;6.056;2022-09-12T08:30:51;38.85;;;22.27;;
60014;SDS011;45867;52.480;6.056;2022-09-12T08:33:17;38.67;;;22.42;;
60014;SDS011;45867;52.480;6.056;2022-09-12T08:35:42;48.25;;;23.00;;
60014;SDS011;45867;52.480;6.056;2022-09-12T08:38:07;39.42;;;22.50;;
60014;SDS011;45867;52.480;6.056;2022-09-12T08:40:45;38.30;;;22.00;;
60014;SDS011;45867;52.480;6.056;2022-09-12T08:43:17;37.92;;;21.77;;
60014;SDS011;45867;52.480;6.056;2022-09-12T08:45:57;42.47;;;22.50;;
60014;SDS011;45867;52.480;6.056;2022-09-12T08:48:24;43.83;;;21.90;;
60014;SDS011;45867;52.480;6.056;2022-09-12T08:50:50;37.45;;;21.67;;
60014;SDS011;45867;52.480;6.056;2022-09-12T08:53:17;38.13;;;22.92;;
60014;SDS011;45867;52.480;6.056;2022-09-12T08:55:50;39.67;;;22.27;;
60014;SDS011;45867;52.480;6.056;2022-09-12T08:58:23;41.05;;;22.45;;
60014;SDS011;45867;52.480;6.056;2022-09-12T09:03:36;42.63;;;23.05;;
60014;SDS011;45867;52.480;6.056;2022-09-12T09:16:52;43.90;;;22.92;;
60014;SDS011;45867;52.480;6.056;2022-09-12T09:19:24;39.65;;;22.15;;
60014;SDS011;45867;52.480;6.056;2022-09-12T09:21:56;42.10;;;21.92;;
60014;SDS011;45867;52.480;6.056;2022-09-12T09:24:27;37.88;;;20.95;;
60014;SDS011;45867;52.480;6.056;2022-09-12T09:26:59;40.53;;;21.80;;
60014;SDS011;45867;52.480;6.056;2022-09-12T09:29:26;34.80;;;21.30;;
60014;SDS011;45867;52.480;6.056;2022-09-12T09:31:54;43.80;;;22.05;;
60014;SDS011;45867;52.480;6.056;2022-09-12T09:34:21;35.72;;;21.90;;
60014;SDS011;45867;52.480;6.056;2022-09-12T09:36:51;38.08;;;20.98;;
60014;SDS011;45867;52.480;6.056;2022-09-12T09:39:20;30.17;;;19.55;;
60014;SDS011;45867;52.480;6.056;2022-09-12T09:44:13;35.70;;;19.13;;
60014;SDS011;45867;52.480;6.056;2022-09-12T09:46:39;29.98;;;18.50;;
60014;SDS011;45867;52.480;6.056;2022-09-12T09:49:04;31.15;;;18.70;;
60014;SDS011;45867;52.480;6.056;2022-09-12T09:51:37;32.50;;;18.30;;
60014;SDS011;45867;52.480;6.056;2022-09-12T09:54:07;31.48;;;17.38;;
60014;SDS011;45867;52.480;6.056;2022-09-12T09:56:38;27.73;;;17.25;;
60014;SDS011;45867;52.480;6.056;2022-09-12T09:59:08;26.65;;;16.90;;
60014;SDS011;45867;52.480;6.056;2022-09-12T10:04:18;24.55;;;16.55;;
60014;SDS011;45867;52.480;6.056;2022-09-12T10:06:44;30.98;;;17.08;;
60014;SDS011;45867;52.480;6.056;2022-09-12T10:11:44;22.00;;;14.75;;
60014;SDS011;45867;52.480;6.056;2022-09-12T10:14:26;26.27;;;15.05;;
60014;SDS011;45867;52.480;6.056;2022-09-12T10:16:51;27.58;;;15.75;;
60014;SDS011;45867;52.480;6.056;2022-09-12T10:19:23;21.63;;;14.52;;
60014;SDS011;45867;52.480;6.056;2022-09-12T10:21:56;28.05;;;14.77;;
60014;SDS011;45867;52.480;6.056;2022-09-12T10:24:26;24.27;;;13.52;;
60014;SDS011;45867;52.480;6.056;2022-09-12T10:26:54;21.98;;;14.30;;
60014;SDS011;45867;52.480;6.056;2022-09-12T10:29:24;21.60;;;13.48;;
60014;SDS011;45867;52.480;6.056;2022-09-12T10:31:52;23.13;;;13.82;;
60014;SDS011;45867;52.480;6.056;2022-09-12T10:35:04;22.02;;;14.15;;
60014;SDS011;45867;52.480;6.056;2022-09-12T10:37:05;20.50;;;12.05;;
60014;SDS011;45867;52.480;6.056;2022-09-12T10:39:31;20.50;;;12.68;;
60014;SDS011;45867;52.480;6.056;2022-09-12T10:41:59;18.77;;;12.38;;
60014;SDS011;45867;52.480;6.056;2022-09-12T10:44:25;19.80;;;12.45;;
60014;SDS011;45867;52.480;6.056;2022-09-12T10:46:51;21.67;;;13.00;;
60014;SDS011;45867;52.480;6.056;2022-09-12T10:49:19;15.95;;;11.80;;
60014;SDS011;45867;52.480;6.056;2022-09-12T10:51:51;17.45;;;12.30;;
60014;SDS011;45867;52.480;6.056;2022-09-12T10:54:17;16.38;;;10.48;;
60014;SDS011;45867;52.480;6.056;2022-09-12T10:56:46;16.08;;;10.80;;
60014;SDS011;45867;52.480;6.056;2022-09-12T11:01:43;16.50;;;10.30;;
60014;SDS011;45867;52.480;6.056;2022-09-12T11:09:16;14.68;;;10.02;;
60014;SDS011;45867;52.480;6.056;2022-09-12T11:11:54;16.20;;;9.77;;
60014;SDS011;45867;52.480;6.056;2022-09-12T11:19:56;16.60;;;8.32;;
60014;SDS011;45867;52.480;6.056;2022-09-12T11:27:58;13.37;;;7.47;;
60014;SDS011;45867;52.480;6.056;2022-09-12T11:30:27;14.00;;;8.18;;
60014;SDS011;45867;52.480;6.056;2022-09-12T11:35:48;11.75;;;7.35;;
60014;SDS011;45867;52.480;6.056;2022-09-12T11:48:43;12.65;;;7.13;;
60014;SDS011;45867;52.480;6.056;2022-09-12T11:51:19;12.25;;;7.72;;
60014;SDS011;45867;52.480;6.056;2022-09-12T11:53:46;12.50;;;7.25;;
60014;SDS011;45867;52.480;6.056;2022-09-12T11:56:15;10.07;;;6.40;;
60014;SDS011;45867;52.480;6.056;2022-09-12T11:58:41;14.52;;;6.63;;
60014;SDS011;45867;52.480;6.056;2022-09-12T12:01:12;12.00;;;6.70;;
60014;SDS011;45867;52.480;6.056;2022-09-12T12:03:51;6.88;;;3.60;;
60014;SDS011;45867;52.480;6.056;2022-09-12T12:06:29;9.35;;;3.60;;
60014;SDS011;45867;52.480;6.056;2022-09-12T12:08:55;6.68;;;4.22;;
60014;SDS011;45867;52.480;6.056;2022-09-12T12:11:26;8.32;;;4.57;;
60014;SDS011;45867;52.480;6.056;2022-09-12T12:13:54;9.35;;;4.18;;
60014;SDS011;45867;52.480;6.056;2022-09-12T12:16:27;11.02;;;4.60;;
60014;SDS011;45867;52.480;6.056;2022-09-12T12:18:54;6.50;;;3.58;;
60014;SDS011;45867;52.480;6.056;2022-09-12T12:24:02;12.83;;;3.30;;
60014;SDS011;45867;52.480;6.056;2022-09-12T12:32:17;4.88;;;3.10;;
60014;SDS011;45867;52.480;6.056;2022-09-12T12:34:44;8.23;;;3.25;;
60014;SDS011;45867;52.480;6.056;2022-09-12T12:37:52;9.07;;;3.00;;
60014;SDS011;45867;52.480;6.056;2022-09-12T12:40:00;5.15;;;3.08;;
60014;SDS011;45867;52.480;6.056;2022-09-12T12:44:58;5.43;;;2.83;;
60014;SDS011;45867;52.480;6.056;2022-09-12T12:47:31;7.13;;;3.30;;
60014;SDS011;45867;52.480;6.056;2022-09-12T12:49:58;5.88;;;3.08;;
60014;SDS011;45867;52.480;6.056;2022-09-12T12:55:27;4.57;;;2.72;;
60014;SDS011;45867;52.480;6.056;2022-09-12T12:57:56;6.07;;;3.10;;
60014;SDS011;45867;52.480;6.056;2022-09-12T13:00:29;6.22;;;2.78;;
60014;SDS011;45867;52.480;6.056;2022-09-12T13:05:41;5.20;;;2.95;;
60014;SDS011;45867;52.480;6.056;2022-09-12T13:08:30;6.35;;;2.92;;
60014;SDS011;45867;52.480;6.056;2022-09-12T13:10:55;5.35;;;2.90;;
60014;SDS011;45867;52.480;6.056;2022-09-12T13:13:24;5.97;;;2.95;;
60014;SDS011;45867;52.480;6.056;2022-09-12T13:15:52;6.28;;;2.70;;
60014;SDS011;45867;52.480;6.056;2022-09-12T13:20:45;6.88;;;2.70;;
60014;SDS011;45867;52.480;6.056;2022-09-12T13:23:23;6.90;;;2.88;;
60014;SDS011;45867;52.480;6.056;2022-09-12T13:25:55;7.32;;;3.20;;
60014;SDS011;45867;52.480;6.056;2022-09-12T13:28:21;6.13;;;2.83;;
60014;SDS011;45867;52.480;6.056;2022-09-12T13:31:01;3.72;;;2.50;;
60014;SDS011;45867;52.480;6.056;2022-09-12T13:41:59;4.82;;;2.63;;
60014;SDS011;45867;52.480;6.056;2022-09-12T13:44:27;6.10;;;2.70;;
60014;SDS011;45867;52.480;6.056;2022-09-12T13:46:54;7.75;;;3.10;;
60014;SDS011;45867;52.480;6.056;2022-09-12T13:52:01;5.45;;;3.05;;
60014;SDS011;45867;52.480;6.056;2022-09-12T13:54:27;5.57;;;2.50;;
60014;SDS011;45867;52.480;6.056;2022-09-12T13:56:53;5.00;;;2.97;;
60014;SDS011;45867;52.480;6.056;2022-09-12T13:59:19;5.15;;;2.38;;
60014;SDS011;45867;52.480;6.056;2022-09-12T14:01:45;5.30;;;3.00;;
60014;SDS011;45867;52.480;6.056;2022-09-12T14:07:18;4.55;;;2.65;;
60014;SDS011;45867;52.480;6.056;2022-09-12T14:09:51;4.30;;;2.70;;
60014;SDS011;45867;52.480;6.056;2022-09-12T14:14:46;6.13;;;2.97;;
60014;SDS011;45867;52.480;6.056;2022-09-12T14:19:57;9.98;;;3.03;;
60014;SDS011;45867;52.480;6.056;2022-09-12T14:22:23;5.95;;;3.05;;
60014;SDS011;45867;52.480;6.056;2022-09-12T14:24:53;4.97;;;2.90;;
60014;SDS011;45867;52.480;6.056;2022-09-12T14:27:21;4.93;;;2.90;;
60014;SDS011;45867;52.480;6.056;2022-09-12T14:29:50;7.80;;;3.00;;
60014;SDS011;45867;52.480;6.056;2022-09-12T14:32:24;6.85;;;3.15;;
60014;SDS011;45867;52.480;6.056;2022-09-12T14:37:54;4.75;;;3.05;;
60014;SDS011;45867;52.480;6.056;2022-09-12T14:40:21;6.22;;;2.97;;
60014;SDS011;45867;52.480;6.056;2022-09-12T14:42:49;6.70;;;2.75;;
60014;SDS011;45867;52.480;6.056;2022-09-12T14:45:16;4.40;;;2.88;;
60014;SDS011;45867;52.480;6.056;2022-09-12T14:47:42;4.35;;;2.63;;
60014;SDS011;45867;52.480;6.056;2022-09-12T14:50:15;4.47;;;2.80;;
60014;SDS011;45867;52.480;6.056;2022-09-12T14:52:41;4.85;;;2.78;;
60014;SDS011;45867;52.480;6.056;2022-09-12T14:55:27;4.85;;;2.88;;
60014;SDS011;45867;52.480;6.056;2022-09-12T14:58:10;5.97;;;2.72;;
60014;SDS011;45867;52.480;6.056;2022-09-12T15:00:36;6.07;;;2.75;;
60014;SDS011;45867;52.480;6.056;2022-09-12T15:03:18;8.18;;;2.90;;
60014;SDS011;45867;52.480;6.056;2022-09-12T15:05:47;5.63;;;2.67;;
60014;SDS011;45867;52.480;6.056;2022-09-12T15:08:13;4.57;;;2.83;;
60014;SDS011;45867;52.480;6.056;2022-09-12T15:10:39;5.22;;;3.08;;
60014;SDS011;45867;52.480;6.056;2022-09-12T15:15:33;5.55;;;3.00;;
60014;SDS011;45867;52.480;6.056;2022-09-12T15:17:59;6.38;;;3.28;;
60014;SDS011;45867;52.480;6.056;2022-09-12T15:20:24;10.02;;;3.10;;
60014;SDS011;45867;52.480;6.056;2022-09-12T15:22:50;7.47;;;3.20;;
60014;SDS011;45867;52.480;6.056;2022-09-12T15:25:16;8.02;;;3.42;;
60014;SDS011;45867;52.480;6.056;2022-09-12T15:27:42;6.13;;;3.10;;
60014;SDS011;45867;52.480;6.056;2022-09-12T15:30:07;5.70;;;3.15;;
60014;SDS011;45867;52.480;6.056;2022-09-12T15:32:34;6.63;;;3.53;;
60014;SDS011;45867;52.480;6.056;2022-09-12T15:35:00;7.07;;;3.58;;
60014;SDS011;45867;52.480;6.056;2022-09-12T15:37:25;5.40;;;3.30;;
60014;SDS011;45867;52.480;6.056;2022-09-12T15:39:51;12.48;;;3.60;;
60014;SDS011;45867;52.480;6.056;2022-09-12T15:42:17;6.53;;;3.42;;
60014;SDS011;45867;52.480;6.056;2022-09-12T15:44:43;6.47;;;3.05;;
60014;SDS011;45867;52.480;6.056;2022-09-12T15:47:12;4.40;;;3.35;;
60014;SDS011;45867;52.480;6.056;2022-09-12T15:49:37;7.70;;;3.30;;
60014;SDS011;45867;52.480;6.056;2022-09-12T15:52:03;6.28;;;3.50;;
60014;SDS011;45867;52.480;6.056;2022-09-12T15:54:40;5.75;;;3.40;;
60014;SDS011;45867;52.480;6.056;2022-09-12T15:57:06;8.20;;;3.38;;
60014;SDS011;45867;52.480;6.056;2022-09-12T15:59:31;10.32;;;3.28;;
60014;SDS011;45867;52.480;6.056;2022-09-12T16:01:56;5.87;;;3.20;;
60014;SDS011;45867;52.480;6.056;2022-09-12T16:04:23;6.80;;;3.50;;
60014;SDS011;45867;52.480;6.056;2022-09-12T16:06:49;5.65;;;3.75;;
60014;SDS011;45867;52.480;6.056;2022-09-12T16:09:17;6.20;;;3.67;;
60014;SDS011;45867;52.480;6.056;2022-09-12T16:11:43;8.15;;;3.70;;
60014;SDS011;45867;52.480;6.056;2022-09-12T16:14:15;7.45;;;3.13;;
60014;SDS011;45867;52.480;6.056;2022-09-12T16:16:40;5.10;;;3.30;;
60014;SDS011;45867;52.480;6.056;2022-09-12T16:19:06;7.15;;;3.08;;
60014;SDS011;45867;52.480;6.056;2022-09-12T16:21:33;5.50;;;3.70;;
60014;SDS011;45867;52.480;6.056;2022-09-12T16:23:58;11.52;;;3.42;;
60014;SDS011;45867;52.480;6.056;2022-09-12T16:26:24;5.15;;;3.17;;
60014;SDS011;45867;52.480;6.056;2022-09-12T16:28:58;9.43;;;3.50;;
60014;SDS011;45867;52.480;6.056;2022-09-12T16:31:42;11.38;;;3.55;;
60014;SDS011;45867;52.480;6.056;2022-09-12T16:34:09;4.72;;;3.25;;
60014;SDS011;45867;52.480;6.056;2022-09-12T16:36:34;7.88;;;3.17;;
60014;SDS011;45867;52.480;6.056;2022-09-12T16:38:59;4.30;;;2.93;;
60014;SDS011;45867;52.480;6.056;2022-09-12T16:41:25;4.82;;;3.10;;
60014;SDS011;45867;52.480;6.056;2022-09-12T16:43:50;10.07;;;3.40;;
60014;SDS011;45867;52.480;6.056;2022-09-12T16:46:17;11.82;;;3.35;;
60014;SDS011;45867;52.480;6.056;2022-09-12T16:48:45;6.55;;;3.40;;